sensor_id;sensor_type;location;lat;lon;timestamp;temperature;humidity
17659;DHT22;8948;51.534;8.262;2022-11-20T00:04:04;-1.20;60.10
17659;DHT22;8948;51.534;8.262;2022-11-20T00:09:04;-1.30;60.20
17659;DHT22;8948;51.534;8.262;2022-11-20T00:14:05;-1.30;60.00
17659;DHT22;8948;51.534;8.262;2022-11-20T00:19:06;-1.30;59.80
17659;DHT22;8948;51.534;8.262;2022-11-20T00:24:08;-1.30;59.10
17659;DHT22;8948;51.534;8.262;2022-11-20T00:29:09;-1.30;58.70
17659;DHT22;8948;51.534;8.262;2022-11-20T00:34:10;-1.30;58.70
17659;DHT22;8948;51.534;8.262;2022-11-20T00:39:11;-1.20;58.70
17659;DHT22;8948;51.534;8.262;2022-11-20T00:44:12;-1.30;58.20
17659;DHT22;8948;51.534;8.262;2022-11-20T00:49:12;-1.30;58.60
17659;DHT22;8948;51.534;8.262;2022-11-20T00:54:13;-1.30;58.30
17659;DHT22;8948;51.534;8.262;2022-11-20T00:59:13;-1.30;57.60
17659;DHT22;8948;51.534;8.262;2022-11-20T01:04:14;-1.40;58.60
17659;DHT22;8948;51.534;8.262;2022-11-20T01:09:14;-1.40;57.90
17659;DHT22;8948;51.534;8.262;2022-11-20T01:14:17;-1.40;58.10
17659;DHT22;8948;51.534;8.262;2022-11-20T01:19:20;-1.40;58.20
17659;DHT22;8948;51.534;8.262;2022-11-20T01:24:22;-1.40;57.90
17659;DHT22;8948;51.534;8.262;2022-11-20T01:29:24;-1.40;57.90
17659;DHT22;8948;51.534;8.262;2022-11-20T01:34:24;-1.50;58.20
17659;DHT22;8948;51.534;8.262;2022-11-20T01:39:26;-1.50;58.70
17659;DHT22;8948;51.534;8.262;2022-11-20T01:49:50;-1.60;58.60
17659;DHT22;8948;51.534;8.262;2022-11-20T01:55:07;-1.60;58.50
17659;DHT22;8948;51.534;8.262;2022-11-20T02:00:11;-1.70;58.90
17659;DHT22;8948;51.534;8.262;2022-11-20T02:10:52;-1.60;58.90
17659;DHT22;8948;51.534;8.262;2022-11-20T02:15:53;-1.70;58.90
17659;DHT22;8948;51.534;8.262;2022-11-20T02:20:58;-1.80;58.90
17659;DHT22;8948;51.534;8.262;2022-11-20T02:26:02;-1.80;59.20
17659;DHT22;8948;51.534;8.262;2022-11-20T02:31:05;-1.80;59.50
17659;DHT22;8948;51.534;8.262;2022-11-20T02:36:09;-1.80;59.70
17659;DHT22;8948;51.534;8.262;2022-11-20T02:41:11;-1.90;59.60
17659;DHT22;8948;51.534;8.262;2022-11-20T02:46:12;-1.90;60.00
17659;DHT22;8948;51.534;8.262;2022-11-20T02:51:12;-1.90;59.90
17659;DHT22;8948;51.534;8.262;2022-11-20T02:56:13;-2.00;60.50
17659;DHT22;8948;51.534;8.262;2022-11-20T03:01:14;-2.00;60.80
17659;DHT22;8948;51.534;8.262;2022-11-20T03:06:16;-2.10;61.20
17659;DHT22;8948;51.534;8.262;2022-11-20T03:11:16;-2.00;62.00
17659;DHT22;8948;51.534;8.262;2022-11-20T03:16:20;-2.00;61.40
17659;DHT22;8948;51.534;8.262;2022-11-20T03:21:20;-1.90;61.30
17659;DHT22;8948;51.534;8.262;2022-11-20T03:26:23;-1.90;61.20
17659;DHT22;8948;51.534;8.262;2022-11-20T03:31:36;-1.90;61.90
17659;DHT22;8948;51.534;8.262;2022-11-20T03:36:38;-1.80;63.20
17659;DHT22;8948;51.534;8.262;2022-11-20T03:41:41;-1.60;63.80
17659;DHT22;8948;51.534;8.262;2022-11-20T03:46:41;-1.50;64.00
17659;DHT22;8948;51.534;8.262;2022-11-20T03:51:42;-1.40;65.90
17659;DHT22;8948;51.534;8.262;2022-11-20T03:56:42;-1.30;67.50
17659;DHT22;8948;51.534;8.262;2022-11-20T04:01:43;-1.20;67.70
17659;DHT22;8948;51.534;8.262;2022-11-20T04:06:43;-1.10;68.60
17659;DHT22;8948;51.534;8.262;2022-11-20T04:11:44;-1.00;69.40
17659;DHT22;8948;51.534;8.262;2022-11-20T04:16:44;-0.90;71.50
17659;DHT22;8948;51.534;8.262;2022-11-20T04:21:45;-0.90;72.40
17659;DHT22;8948;51.534;8.262;2022-11-20T04:26:45;-0.80;71.60
17659;DHT22;8948;51.534;8.262;2022-11-20T04:31:46;-0.80;70.70
17659;DHT22;8948;51.534;8.262;2022-11-20T04:36:47;-0.80;71.30
17659;DHT22;8948;51.534;8.262;2022-11-20T04:41:47;-0.90;71.80
17659;DHT22;8948;51.534;8.262;2022-11-20T04:46:48;-1.00;73.70
17659;DHT22;8948;51.534;8.262;2022-11-20T04:51:48;-0.90;73.50
17659;DHT22;8948;51.534;8.262;2022-11-20T04:56:49;-0.80;72.80
17659;DHT22;8948;51.534;8.262;2022-11-20T05:01:50;-0.70;72.30
17659;DHT22;8948;51.534;8.262;2022-11-20T05:06:50;-0.70;71.80
17659;DHT22;8948;51.534;8.262;2022-11-20T05:11:51;-0.70;72.60
17659;DHT22;8948;51.534;8.262;2022-11-20T05:16:51;-0.70;72.40
17659;DHT22;8948;51.534;8.262;2022-11-20T05:21:52;-0.60;73.10
17659;DHT22;8948;51.534;8.262;2022-11-20T05:26:52;-0.60;73.20
17659;DHT22;8948;51.534;8.262;2022-11-20T05:31:53;-0.50;72.20
17659;DHT22;8948;51.534;8.262;2022-11-20T05:36:53;-0.50;73.00
17659;DHT22;8948;51.534;8.262;2022-11-20T05:41:54;-0.40;73.00
17659;DHT22;8948;51.534;8.262;2022-11-20T05:47:13;-0.30;73.20
17659;DHT22;8948;51.534;8.262;2022-11-20T05:52:13;-0.30;72.70
17659;DHT22;8948;51.534;8.262;2022-11-20T05:57:14;-0.20;73.10
17659;DHT22;8948;51.534;8.262;2022-11-20T06:02:15;-0.20;73.10
17659;DHT22;8948;51.534;8.262;2022-11-20T06:07:15;-0.20;73.00
17659;DHT22;8948;51.534;8.262;2022-11-20T06:12:16;-0.30;73.80
17659;DHT22;8948;51.534;8.262;2022-11-20T06:17:16;-0.20;73.50
17659;DHT22;8948;51.534;8.262;2022-11-20T06:22:17;-0.20;73.20
17659;DHT22;8948;51.534;8.262;2022-11-20T06:27:17;-0.10;72.70
17659;DHT22;8948;51.534;8.262;2022-11-20T06:32:18;0.00;73.40
17659;DHT22;8948;51.534;8.262;2022-11-20T06:37:18;0.00;73.20
17659;DHT22;8948;51.534;8.262;2022-11-20T06:42:19;0.10;73.10
17659;DHT22;8948;51.534;8.262;2022-11-20T06:47:19;0.10;72.60
17659;DHT22;8948;51.534;8.262;2022-11-20T06:52:20;0.20;72.50
17659;DHT22;8948;51.534;8.262;2022-11-20T06:57:20;0.20;72.40
17659;DHT22;8948;51.534;8.262;2022-11-20T07:02:21;0.20;72.40
17659;DHT22;8948;51.534;8.262;2022-11-20T07:07:22;0.20;74.60
17659;DHT22;8948;51.534;8.262;2022-11-20T07:12:22;0.20;74.40
17659;DHT22;8948;51.534;8.262;2022-11-20T07:17:23;0.20;73.70
17659;DHT22;8948;51.534;8.262;2022-11-20T07:22:24;0.40;82.10
17659;DHT22;8948;51.534;8.262;2022-11-20T07:27:24;1.10;81.50
17659;DHT22;8948;51.534;8.262;2022-11-20T07:37:37;0.60;74.20
17659;DHT22;8948;51.534;8.262;2022-11-20T07:42:38;0.40;73.90
17659;DHT22;8948;51.534;8.262;2022-11-20T07:52:49;0.30;74.10
17659;DHT22;8948;51.534;8.262;2022-11-20T07:57:54;0.30;74.10
17659;DHT22;8948;51.534;8.262;2022-11-20T08:02:56;0.30;73.90
17659;DHT22;8948;51.534;8.262;2022-11-20T08:07:56;0.40;73.90
17659;DHT22;8948;51.534;8.262;2022-11-20T08:12:57;0.50;73.80
17659;DHT22;8948;51.534;8.262;2022-11-20T08:18:17;0.60;73.40
17659;DHT22;8948;51.534;8.262;2022-11-20T08:23:17;0.80;73.40
17659;DHT22;8948;51.534;8.262;2022-11-20T08:28:18;0.90;73.10
17659;DHT22;8948;51.534;8.262;2022-11-20T08:33:19;1.10;73.10
17659;DHT22;8948;51.534;8.262;2022-11-20T08:38:19;1.40;72.10
17659;DHT22;8948;51.534;8.262;2022-11-20T08:43:20;1.60;72.40
17659;DHT22;8948;51.534;8.262;2022-11-20T08:48:21;1.90;72.10
17659;DHT22;8948;51.534;8.262;2022-11-20T08:53:21;2.10;71.50
17659;DHT22;8948;51.534;8.262;2022-11-20T08:58:22;2.10;72.00
17659;DHT22;8948;51.534;8.262;2022-11-20T09:03:22;2.10;72.80
17659;DHT22;8948;51.534;8.262;2022-11-20T09:08:23;2.10;71.50
17659;DHT22;8948;51.534;8.262;2022-11-20T09:13:26;2.10;72.00
17659;DHT22;8948;51.534;8.262;2022-11-20T09:18:28;2.00;71.80
17659;DHT22;8948;51.534;8.262;2022-11-20T09:23:34;2.00;71.90
17659;DHT22;8948;51.534;8.262;2022-11-20T09:28:35;2.50;71.00
17659;DHT22;8948;51.534;8.262;2022-11-20T09:33:36;2.80;71.20
17659;DHT22;8948;51.534;8.262;2022-11-20T09:38:36;2.80;69.60
17659;DHT22;8948;51.534;8.262;2022-11-20T09:54:46;3.60;67.90
17659;DHT22;8948;51.534;8.262;2022-11-20T09:59:53;3.50;67.00
17659;DHT22;8948;51.534;8.262;2022-11-20T10:05:04;3.50;67.50
17659;DHT22;8948;51.534;8.262;2022-11-20T10:10:13;3.50;67.60
17659;DHT22;8948;51.534;8.262;2022-11-20T10:15:22;3.50;66.70
17659;DHT22;8948;51.534;8.262;2022-11-20T10:20:38;4.00;66.80
17659;DHT22;8948;51.534;8.262;2022-11-20T10:25:51;4.60;66.40
17659;DHT22;8948;51.534;8.262;2022-11-20T10:31:00;5.10;63.10
17659;DHT22;8948;51.534;8.262;2022-11-20T10:36:22;5.30;62.70
17659;DHT22;8948;51.534;8.262;2022-11-20T10:41:34;5.60;61.60
17659;DHT22;8948;51.534;8.262;2022-11-20T10:46:43;5.70;60.80
17659;DHT22;8948;51.534;8.262;2022-11-20T10:52:09;5.80;60.90
17659;DHT22;8948;51.534;8.262;2022-11-20T11:02:38;6.10;59.30
17659;DHT22;8948;51.534;8.262;2022-11-20T11:07:40;5.70;59.80
17659;DHT22;8948;51.534;8.262;2022-11-20T11:12:45;5.70;59.70
17659;DHT22;8948;51.534;8.262;2022-11-20T11:17:47;5.60;57.60
17659;DHT22;8948;51.534;8.262;2022-11-20T11:22:51;5.50;57.90
17659;DHT22;8948;51.534;8.262;2022-11-20T11:27:53;5.70;58.10
17659;DHT22;8948;51.534;8.262;2022-11-20T11:33:06;5.80;57.40
17659;DHT22;8948;51.534;8.262;2022-11-20T11:38:12;6.00;57.20
17659;DHT22;8948;51.534;8.262;2022-11-20T11:43:23;6.10;55.60
17659;DHT22;8948;51.534;8.262;2022-11-20T11:48:58;6.50;56.90
17659;DHT22;8948;51.534;8.262;2022-11-20T11:54:00;6.80;54.90
17659;DHT22;8948;51.534;8.262;2022-11-20T11:59:06;6.90;54.80
17659;DHT22;8948;51.534;8.262;2022-11-20T12:04:46;6.60;55.40
17659;DHT22;8948;51.534;8.262;2022-11-20T12:09:52;6.60;54.80
17659;DHT22;8948;51.534;8.262;2022-11-20T12:14:55;6.60;53.50
17659;DHT22;8948;51.534;8.262;2022-11-20T12:19:57;7.20;63.80
17659;DHT22;8948;51.534;8.262;2022-11-20T12:25:17;7.40;53.20
17659;DHT22;8948;51.534;8.262;2022-11-20T12:30:20;6.90;52.50
17659;DHT22;8948;51.534;8.262;2022-11-20T12:46:18;6.90;53.80
17659;DHT22;8948;51.534;8.262;2022-11-20T12:51:33;7.20;53.20
17659;DHT22;8948;51.534;8.262;2022-11-20T13:07:36;7.00;52.10
17659;DHT22;8948;51.534;8.262;2022-11-20T13:12:41;6.90;54.20
17659;DHT22;8948;51.534;8.262;2022-11-20T13:22:55;6.90;53.60
17659;DHT22;8948;51.534;8.262;2022-11-20T13:27:59;6.50;54.50
17659;DHT22;8948;51.534;8.262;2022-11-20T13:33:07;6.30;55.10
17659;DHT22;8948;51.534;8.262;2022-11-20T13:38:13;6.30;55.50
17659;DHT22;8948;51.534;8.262;2022-11-20T13:43:40;6.60;55.80
17659;DHT22;8948;51.534;8.262;2022-11-20T13:48:43;6.70;53.80
17659;DHT22;8948;51.534;8.262;2022-11-20T13:59:06;6.40;54.50
17659;DHT22;8948;51.534;8.262;2022-11-20T14:04:15;6.20;55.70
17659;DHT22;8948;51.534;8.262;2022-11-20T14:09:26;6.10;55.80
17659;DHT22;8948;51.534;8.262;2022-11-20T14:14:29;6.10;55.10
17659;DHT22;8948;51.534;8.262;2022-11-20T14:19:30;6.00;56.10
17659;DHT22;8948;51.534;8.262;2022-11-20T14:24:31;5.90;56.30
17659;DHT22;8948;51.534;8.262;2022-11-20T14:29:36;5.90;59.40
17659;DHT22;8948;51.534;8.262;2022-11-20T14:34:40;5.90;57.20
17659;DHT22;8948;51.534;8.262;2022-11-20T14:39:47;5.80;57.30
17659;DHT22;8948;51.534;8.262;2022-11-20T14:44:49;5.80;61.00
17659;DHT22;8948;51.534;8.262;2022-11-20T14:49:51;5.80;58.30
17659;DHT22;8948;51.534;8.262;2022-11-20T14:54:55;5.60;58.20
17659;DHT22;8948;51.534;8.262;2022-11-20T15:05:17;5.40;58.80
17659;DHT22;8948;51.534;8.262;2022-11-20T15:10:27;5.20;59.40
17659;DHT22;8948;51.534;8.262;2022-11-20T15:20:48;5.10;60.50
17659;DHT22;8948;51.534;8.262;2022-11-20T15:25:49;5.10;60.30
17659;DHT22;8948;51.534;8.262;2022-11-20T15:30:50;5.00;61.20
17659;DHT22;8948;51.534;8.262;2022-11-20T15:35:51;4.90;62.00
17659;DHT22;8948;51.534;8.262;2022-11-20T15:40:51;4.90;62.80
17659;DHT22;8948;51.534;8.262;2022-11-20T15:46:04;5.00;63.30
17659;DHT22;8948;51.534;8.262;2022-11-20T15:56:25;5.20;63.40
17659;DHT22;8948;51.534;8.262;2022-11-20T16:01:25;5.30;63.50
17659;DHT22;8948;51.534;8.262;2022-11-20T16:06:26;5.30;63.80
17659;DHT22;8948;51.534;8.262;2022-11-20T16:11:27;5.30;63.90
17659;DHT22;8948;51.534;8.262;2022-11-20T16:16:34;5.30;64.40
17659;DHT22;8948;51.534;8.262;2022-11-20T16:21:34;5.40;64.90
17659;DHT22;8948;51.534;8.262;2022-11-20T16:26:37;5.50;64.70
17659;DHT22;8948;51.534;8.262;2022-11-20T16:31:38;5.50;64.90
17659;DHT22;8948;51.534;8.262;2022-11-20T16:36:43;5.40;65.90
17659;DHT22;8948;51.534;8.262;2022-11-20T16:41:45;5.30;66.60
17659;DHT22;8948;51.534;8.262;2022-11-20T16:46:45;5.20;67.60
17659;DHT22;8948;51.534;8.262;2022-11-20T16:51:46;5.20;67.70
17659;DHT22;8948;51.534;8.262;2022-11-20T16:56:46;5.20;68.20
17659;DHT22;8948;51.534;8.262;2022-11-20T17:01:47;5.10;68.70
17659;DHT22;8948;51.534;8.262;2022-11-20T17:06:49;5.10;68.60
17659;DHT22;8948;51.534;8.262;2022-11-20T17:11:49;5.10;69.00
17659;DHT22;8948;51.534;8.262;2022-11-20T17:16:50;5.00;69.50
17659;DHT22;8948;51.534;8.262;2022-11-20T17:21:51;5.10;69.70
17659;DHT22;8948;51.534;8.262;2022-11-20T17:26:52;5.10;69.90
17659;DHT22;8948;51.534;8.262;2022-11-20T17:31:53;5.20;69.50
17659;DHT22;8948;51.534;8.262;2022-11-20T17:36:54;5.20;69.50
17659;DHT22;8948;51.534;8.262;2022-11-20T17:41:55;5.30;69.30
17659;DHT22;8948;51.534;8.262;2022-11-20T17:47:14;5.40;69.50
17659;DHT22;8948;51.534;8.262;2022-11-20T17:52:15;5.40;69.40
17659;DHT22;8948;51.534;8.262;2022-11-20T17:57:16;5.50;70.20
17659;DHT22;8948;51.534;8.262;2022-11-20T18:02:35;5.40;71.20
17659;DHT22;8948;51.534;8.262;2022-11-20T18:07:36;5.50;71.60
17659;DHT22;8948;51.534;8.262;2022-11-20T18:12:38;5.40;72.00
17659;DHT22;8948;51.534;8.262;2022-11-20T18:17:38;5.50;71.80
17659;DHT22;8948;51.534;8.262;2022-11-20T18:22:39;5.60;71.70
17659;DHT22;8948;51.534;8.262;2022-11-20T18:27:39;5.50;72.40
17659;DHT22;8948;51.534;8.262;2022-11-20T18:32:40;5.50;72.40
17659;DHT22;8948;51.534;8.262;2022-11-20T18:37:41;5.50;72.70
17659;DHT22;8948;51.534;8.262;2022-11-20T18:42:42;5.50;71.90
17659;DHT22;8948;51.534;8.262;2022-11-20T18:48:01;5.40;73.10
17659;DHT22;8948;51.534;8.262;2022-11-20T18:53:02;5.50;73.00
17659;DHT22;8948;51.534;8.262;2022-11-20T18:58:02;5.50;72.90
17659;DHT22;8948;51.534;8.262;2022-11-20T19:03:03;5.50;73.30
17659;DHT22;8948;51.534;8.262;2022-11-20T19:08:03;5.60;72.90
17659;DHT22;8948;51.534;8.262;2022-11-20T19:13:04;5.60;73.00
17659;DHT22;8948;51.534;8.262;2022-11-20T19:18:05;5.70;72.60
17659;DHT22;8948;51.534;8.262;2022-11-20T19:23:05;5.70;72.60
17659;DHT22;8948;51.534;8.262;2022-11-20T19:28:06;5.70;73.10
17659;DHT22;8948;51.534;8.262;2022-11-20T19:33:07;5.70;73.00
17659;DHT22;8948;51.534;8.262;2022-11-20T19:38:07;5.60;72.90
17659;DHT22;8948;51.534;8.262;2022-11-20T19:43:08;5.50;72.90
17659;DHT22;8948;51.534;8.262;2022-11-20T19:48:08;5.50;72.90
17659;DHT22;8948;51.534;8.262;2022-11-20T19:53:09;5.50;72.80
17659;DHT22;8948;51.534;8.262;2022-11-20T19:58:10;5.50;72.80
17659;DHT22;8948;51.534;8.262;2022-11-20T20:03:11;5.50;72.80
17659;DHT22;8948;51.534;8.262;2022-11-20T20:08:12;5.50;72.80
17659;DHT22;8948;51.534;8.262;2022-11-20T20:13:13;5.60;72.80
17659;DHT22;8948;51.534;8.262;2022-11-20T20:18:14;5.60;72.90
17659;DHT22;8948;51.534;8.262;2022-11-20T20:23:14;5.60;73.00
17659;DHT22;8948;51.534;8.262;2022-11-20T20:28:15;5.60;72.90
17659;DHT22;8948;51.534;8.262;2022-11-20T20:33:15;5.60;73.00
17659;DHT22;8948;51.534;8.262;2022-11-20T20:38:16;5.60;73.10
17659;DHT22;8948;51.534;8.262;2022-11-20T20:43:17;5.60;73.30
17659;DHT22;8948;51.534;8.262;2022-11-20T20:48:19;5.50;73.70
17659;DHT22;8948;51.534;8.262;2022-11-20T20:53:21;5.50;74.20
17659;DHT22;8948;51.534;8.262;2022-11-20T20:58:22;5.50;74.10
17659;DHT22;8948;51.534;8.262;2022-11-20T21:03:22;5.50;74.20
17659;DHT22;8948;51.534;8.262;2022-11-20T21:08:23;5.60;73.90
17659;DHT22;8948;51.534;8.262;2022-11-20T21:13:24;5.40;74.70
17659;DHT22;8948;51.534;8.262;2022-11-20T21:18:25;5.50;74.20
17659;DHT22;8948;51.534;8.262;2022-11-20T21:23:26;5.50;74.20
17659;DHT22;8948;51.534;8.262;2022-11-20T21:28:29;5.50;74.40
17659;DHT22;8948;51.534;8.262;2022-11-20T21:33:47;5.50;74.00
17659;DHT22;8948;51.534;8.262;2022-11-20T21:38:50;5.60;74.40
17659;DHT22;8948;51.534;8.262;2022-11-20T21:43:51;5.50;74.10
17659;DHT22;8948;51.534;8.262;2022-11-20T21:48:52;5.60;74.20
17659;DHT22;8948;51.534;8.262;2022-11-20T21:53:54;5.50;74.20
17659;DHT22;8948;51.534;8.262;2022-11-20T21:58:55;5.40;74.20
17659;DHT22;8948;51.534;8.262;2022-11-20T22:04:00;5.40;74.10
17659;DHT22;8948;51.534;8.262;2022-11-20T22:09:02;5.40;73.90
17659;DHT22;8948;51.534;8.262;2022-11-20T22:14:02;5.40;73.80
17659;DHT22;8948;51.534;8.262;2022-11-20T22:19:22;5.30;74.10
17659;DHT22;8948;51.534;8.262;2022-11-20T22:24:22;5.40;73.60
17659;DHT22;8948;51.534;8.262;2022-11-20T22:29:23;5.40;73.80
17659;DHT22;8948;51.534;8.262;2022-11-20T22:34:23;5.40;73.50
17659;DHT22;8948;51.534;8.262;2022-11-20T22:39:24;5.30;73.50
17659;DHT22;8948;51.534;8.262;2022-11-20T22:44:25;5.30;73.40
17659;DHT22;8948;51.534;8.262;2022-11-20T22:49:25;5.20;73.60
17659;DHT22;8948;51.534;8.262;2022-11-20T22:54:26;5.20;73.50
17659;DHT22;8948;51.534;8.262;2022-11-20T22:59:26;5.00;73.80
17659;DHT22;8948;51.534;8.262;2022-11-20T23:04:27;4.90;74.50
17659;DHT22;8948;51.534;8.262;2022-11-20T23:09:27;4.80;74.50
17659;DHT22;8948;51.534;8.262;2022-11-20T23:14:28;4.80;74.40
17659;DHT22;8948;51.534;8.262;2022-11-20T23:19:28;4.70;74.70
17659;DHT22;8948;51.534;8.262;2022-11-20T23:24:29;4.70;74.80
17659;DHT22;8948;51.534;8.262;2022-11-20T23:29:29;4.60;74.40
17659;DHT22;8948;51.534;8.262;2022-11-20T23:34:30;4.60;74.10
17659;DHT22;8948;51.534;8.262;2022-11-20T23:39:30;4.40;73.60
17659;DHT22;8948;51.534;8.262;2022-11-20T23:44:31;4.20;74.30
17659;DHT22;8948;51.534;8.262;2022-11-20T23:49:31;4.00;73.90
17659;DHT22;8948;51.534;8.262;2022-11-20T23:54:32;3.90;74.00
17659;DHT22;8948;51.534;8.262;2022-11-20T23:59:32;3.90;73.60
